createdAt,value
2022-08-07T00:00:52.372Z,99.9
2022-08-07T00:07:05.159Z,99.9
2022-08-07T00:09:16.876Z,99.9
2022-08-07T00:11:06.468Z,99.9
2022-08-07T00:13:17.478Z,99.9
2022-08-07T00:15:10.541Z,99.9
2022-08-07T00:17:15.817Z,99.9
2022-08-07T00:19:21.568Z,99.9
2022-08-07T00:21:57.155Z,99.9
2022-08-07T00:22:24.690Z,99.9
2022-08-07T00:24:25.116Z,99.9
2022-08-07T00:26:49.092Z,99.9
2022-08-07T00:28:33.685Z,99.9
2022-08-07T00:30:34.902Z,99.9
2022-08-07T00:36:43.359Z,99.9
2022-08-07T00:38:43.485Z,99.9
2022-08-07T00:42:47.733Z,99.9
2022-08-07T00:44:53.102Z,99.9
2022-08-07T00:46:55.348Z,99.9
2022-08-07T00:48:57.570Z,99.9
2022-08-07T00:50:59.733Z,99.9
2022-08-07T00:53:01.841Z,99.9
2022-08-07T01:07:20.336Z,99.9
2022-08-07T01:10:02.393Z,99.9
2022-08-07T01:12:23.514Z,99.9
2022-08-07T01:13:30.054Z,99.9
2022-08-07T01:18:37.015Z,99.9
2022-08-07T01:20:43.233Z,99.9
2022-08-07T01:22:46.520Z,99.9
2022-08-07T01:24:43.573Z,99.9
2022-08-07T01:26:52.052Z,99.9
2022-08-07T01:28:51.140Z,99.9
2022-08-07T01:30:53.252Z,99.9
2022-08-07T01:32:55.474Z,99.9
2022-08-07T01:34:57.670Z,99.9
2022-08-07T01:36:59.775Z,99.9
2022-08-07T01:39:01.958Z,99.9
2022-08-07T01:41:07.256Z,99.9
2022-08-07T01:43:09.444Z,99.9
2022-08-07T01:45:17.933Z,99.9
2022-08-07T01:52:02.803Z,99.9
2022-08-07T01:53:20.841Z,99.9
2022-08-07T01:55:25.930Z,99.9
2022-08-07T01:57:28.144Z,99.9
2022-08-07T01:59:30.969Z,99.9
2022-08-07T02:02:02.015Z,99.9
2022-08-07T02:03:42.725Z,99.9
2022-08-07T02:05:47.588Z,99.9
2022-08-07T02:07:50.044Z,99.9
2022-08-07T02:09:52.613Z,99.9
2022-08-07T02:12:03.075Z,99.9
2022-08-07T02:13:58.117Z,99.9
2022-08-07T02:14:51.591Z,99.9
2022-08-07T02:16:53.783Z,99.9
2022-08-07T02:18:55.974Z,99.9
2022-08-07T02:20:58.097Z,99.9
2022-08-07T02:23:03.478Z,99.9
2022-08-07T02:25:07.383Z,99.9
2022-08-07T02:27:07.795Z,99.9
2022-08-07T02:29:13.640Z,99.9
2022-08-07T02:31:28.855Z,99.9
2022-08-07T02:33:14.291Z,99.9
2022-08-07T02:35:20.422Z,99.9
2022-08-07T02:37:21.826Z,99.9
2022-08-07T02:39:43.308Z,99.9
2022-08-07T02:41:26.217Z,99.9
2022-08-07T02:45:59.324Z,99.9
2022-08-07T02:53:42.512Z,99.9
2022-08-07T02:57:46.923Z,99.9
2022-08-07T02:59:55.178Z,99.9
2022-08-07T03:01:52.246Z,99.9
2022-08-07T03:03:53.458Z,99.9
2022-08-07T03:10:03.314Z,99.9
2022-08-07T03:12:32.257Z,99.9
2022-08-07T03:14:34.368Z,99.9
2022-08-07T03:16:36.570Z,99.9
2022-08-07T03:18:44.098Z,99.9
2022-08-07T03:20:44.139Z,99.9
2022-08-07T03:22:49.933Z,99.9
2022-08-07T03:24:48.527Z,99.9
2022-08-07T03:26:58.066Z,99.9
2022-08-07T03:28:53.077Z,99.9
2022-08-07T03:30:55.116Z,99.9
2022-08-07T03:33:00.967Z,99.9
2022-08-07T03:35:17.597Z,99.9
2022-08-07T03:37:11.929Z,99.9
2022-08-07T03:39:07.241Z,99.9
2022-08-07T03:41:10.450Z,99.9
2022-08-07T03:43:14.371Z,99.9
2022-08-07T03:45:29.421Z,99.9
2022-08-07T03:47:19.114Z,99.9
2022-08-07T03:49:21.365Z,99.9
2022-08-07T03:51:23.448Z,99.9
2022-08-07T03:54:01.883Z,99.9
2022-08-07T03:55:58.379Z,99.9
2022-08-07T03:58:17.977Z,99.9
2022-08-07T03:59:32.196Z,99.9
2022-08-07T04:01:37.702Z,99.9
2022-08-07T04:03:49.997Z,99.9
2022-08-07T04:06:44.737Z,99.9
2022-08-07T04:08:46.937Z,99.9
2022-08-07T04:10:54.865Z,99.9
2022-08-07T04:21:03.357Z,99.9
2022-08-07T04:23:06.394Z,99.9
2022-08-07T04:25:11.805Z,99.9
2022-08-07T04:27:15.332Z,99.9
2022-08-07T04:29:15.390Z,99.9
2022-08-07T04:31:20.155Z,99.9
2022-08-07T04:33:19.791Z,99.9
2022-08-07T04:35:21.969Z,99.9
2022-08-07T04:37:24.281Z,99.9
2022-08-07T04:39:26.473Z,99.9
2022-08-07T04:41:28.568Z,99.9
2022-08-07T04:44:10.151Z,99.9
2022-08-07T04:45:57.258Z,99.9
2022-08-07T04:48:00.902Z,99.9
2022-08-07T04:49:40.458Z,99.9
2022-08-07T04:51:42.689Z,99.9
2022-08-07T04:54:05.192Z,99.9
2022-08-07T04:58:14.030Z,99.9
2022-08-07T04:58:27.906Z,99.9
2022-08-07T05:00:11.844Z,99.9
2022-08-07T05:01:56.877Z,99.9
2022-08-07T05:07:19.706Z,99.9
2022-08-07T05:09:06.309Z,99.9
2022-08-07T05:14:54.050Z,99.9
2022-08-07T05:15:16.013Z,99.9
2022-08-07T05:18:00.599Z,99.9
2022-08-07T05:19:20.387Z,99.9
2022-08-07T05:22:00.726Z,99.9
2022-08-07T05:23:30.926Z,99.9
2022-08-07T05:25:54.616Z,99.9
2022-08-07T05:28:02.702Z,99.9
2022-08-07T05:29:38.976Z,99.9
2022-08-07T05:31:37.947Z,99.9
2022-08-07T05:40:07.075Z,99.9
2022-08-07T05:45:56.568Z,99.9
2022-08-07T05:48:01.370Z,99.9
2022-08-07T05:49:59.521Z,99.9
2022-08-07T05:52:03.279Z,99.9
2022-08-07T05:54:30.339Z,99.9
2022-08-07T05:56:12.484Z,99.9
2022-08-07T05:59:15.630Z,99.9
2022-08-07T06:01:17.886Z,99.9
2022-08-07T06:03:20.061Z,99.9
2022-08-07T06:05:25.918Z,99.9
2022-08-07T06:08:14.333Z,99.9
2022-08-07T06:09:44.842Z,99.9
2022-08-07T06:14:12.998Z,99.9
2022-08-07T06:15:41.994Z,99.9
2022-08-07T06:17:38.617Z,99.9
2022-08-07T06:19:51.877Z,99.9
2022-08-07T06:22:14.300Z,99.9
2022-08-07T06:24:46.244Z,99.9
2022-08-07T06:29:54.644Z,99.9
2022-08-07T06:31:56.745Z,99.9
2022-08-07T06:36:13.025Z,99.9
2022-08-07T06:38:06.234Z,99.9
2022-08-07T06:46:14.654Z,99.9
2022-08-07T06:50:22.042Z,99.9
2022-08-07T06:52:31.867Z,99.9
2022-08-07T06:55:31.493Z,99.9
2022-08-07T06:56:55.118Z,99.9
2022-08-07T07:05:06.592Z,99.9
2022-08-07T07:07:10.737Z,99.9
2022-08-07T07:09:10.829Z,99.9
2022-08-07T07:11:14.017Z,99.9
2022-08-07T07:13:15.086Z,99.9
2022-08-07T07:15:23.795Z,99.9
2022-08-07T07:17:22.432Z,99.9
2022-08-07T07:19:57.895Z,99.9
2022-08-07T07:21:26.993Z,99.9
2022-08-07T07:24:08.347Z,99.9
2022-08-07T07:26:33.920Z,99.9
2022-08-07T07:27:35.713Z,99.9
2022-08-07T07:29:56.017Z,99.9
2022-08-07T07:31:44.440Z,99.9
2022-08-07T07:36:04.078Z,99.9
2022-08-07T07:37:52.560Z,99.9
2022-08-07T07:39:55.051Z,99.9
2022-08-07T07:42:08.817Z,99.9
2022-08-07T07:44:14.417Z,99.9
2022-08-07T07:46:37.414Z,99.9
2022-08-07T07:48:00.520Z,99.9
2022-08-07T07:50:35.014Z,99.9
2022-08-07T07:51:07.570Z,99.9
2022-08-07T07:53:20.132Z,99.9
2022-08-07T07:57:11.626Z,99.9
2022-08-07T08:04:10.961Z,99.9
2022-08-07T08:05:23.250Z,99.9
2022-08-07T08:07:35.869Z,99.9
2022-08-07T08:09:29.311Z,99.9
2022-08-07T08:11:59.763Z,99.9
2022-08-07T08:13:52.802Z,99.9
2022-08-07T08:15:58.173Z,99.9
2022-08-07T08:17:57.969Z,99.9
2022-08-07T08:20:17.914Z,99.9
2022-08-07T08:21:56.024Z,99.9
2022-08-07T08:23:45.483Z,99.9
2022-08-07T08:25:49.395Z,99.9
2022-08-07T08:27:57.174Z,99.9
2022-08-07T08:29:56.058Z,99.9
2022-08-07T08:32:16.944Z,99.9
2022-08-07T08:33:59.201Z,99.9
2022-08-07T08:36:01.327Z,99.9
2022-08-07T08:38:04.853Z,99.9
2022-08-07T08:40:05.550Z,99.9
2022-08-07T08:42:10.818Z,99.9
2022-08-07T08:44:12.909Z,99.9
2022-08-07T08:46:15.029Z,99.9
2022-08-07T08:47:17.649Z,99.9
2022-08-07T08:49:33.306Z,99.9
2022-08-07T08:51:25.980Z,99.9
2022-08-07T08:53:24.007Z,99.9
2022-08-07T08:55:54.482Z,99.9
2022-08-07T08:59:41.792Z,99.9
2022-08-07T09:01:40.088Z,99.9
2022-08-07T09:09:47.675Z,99.9
2022-08-07T09:16:21.619Z,99.9
2022-08-07T09:17:59.690Z,99.9
2022-08-07T09:19:57.730Z,99.9
2022-08-07T09:24:28.640Z,99.9
2022-08-07T09:30:01.134Z,99.8
2022-08-07T09:30:11.443Z,99.7
2022-08-07T09:32:17.072Z,99.4
2022-08-07T09:34:15.929Z,99.2
2022-08-07T09:36:17.728Z,99.1
2022-08-07T09:38:23.285Z,98.7
2022-08-07T09:40:25.230Z,98.5
2022-08-07T09:42:31.592Z,98.6
2022-08-07T09:44:03.580Z,98.6
2022-08-07T09:47:49.986Z,98.4
2022-08-07T09:47:59.517Z,98.2
2022-08-07T09:50:18.243Z,98.1
2022-08-07T09:52:17.071Z,97.5
2022-08-07T09:53:49.936Z,97
2022-08-07T09:56:04.630Z,96.8
2022-08-07T10:04:06.373Z,96.2
2022-08-07T10:08:02.331Z,95.7
2022-08-07T10:10:03.550Z,95.6
2022-08-07T10:12:13.294Z,95.5
2022-08-07T10:14:07.723Z,95.3
2022-08-07T10:16:09.785Z,95.3
2022-08-07T10:18:11.999Z,95.2
2022-08-07T10:20:20.717Z,94.7
2022-08-07T10:22:24.885Z,94.5
2022-08-07T10:24:21.696Z,94.3
2022-08-07T10:26:24.618Z,94.3
2022-08-07T10:28:25.502Z,94.5
2022-08-07T10:30:27.605Z,94.7
2022-08-07T10:32:36.876Z,94.8
2022-08-07T10:34:34.948Z,95
2022-08-07T10:36:37.597Z,95
2022-08-07T10:38:48.204Z,94.9
2022-08-07T10:41:07.748Z,94.1
2022-08-07T10:43:09.840Z,93.7
2022-08-07T10:45:11.937Z,93.1
2022-08-07T10:47:17.179Z,92.3
2022-08-07T10:49:24.543Z,91.9
2022-08-07T10:51:39.128Z,91.5
2022-08-07T10:53:23.450Z,91.1
2022-08-07T10:55:32.600Z,90.9
2022-08-07T10:57:34.695Z,90.6
2022-08-07T10:59:30.226Z,90.4
2022-08-07T11:01:35.702Z,90.4
2022-08-07T11:03:37.679Z,90.7
2022-08-07T11:05:49.085Z,90.8
2022-08-07T11:07:59.107Z,91.2
2022-08-07T11:10:09.891Z,91.5
2022-08-07T11:11:45.358Z,91.4
2022-08-07T11:14:44.698Z,91.3
2022-08-07T11:15:54.268Z,89.5
2022-08-07T11:17:54.767Z,89
2022-08-07T11:19:56.828Z,88.6
2022-08-07T11:21:58.912Z,88.4
2022-08-07T11:24:00.986Z,88.2
2022-08-07T11:26:06.177Z,87.3
2022-08-07T11:28:05.296Z,86.8
2022-08-07T11:30:18.752Z,85.6
2022-08-07T11:32:12.481Z,84.3
2022-08-07T11:34:16.455Z,84
2022-08-07T11:35:17.187Z,83
2022-08-07T11:39:21.423Z,81.5
2022-08-07T11:41:30.979Z,81
2022-08-07T11:43:54.568Z,80.3
2022-08-07T11:45:36.045Z,80.2
2022-08-07T11:47:38.947Z,80.2
2022-08-07T11:50:11.478Z,80
2022-08-07T11:51:41.500Z,80.2
2022-08-07T11:56:14.008Z,79.9
2022-08-07T11:57:59.506Z,79.4
2022-08-07T12:00:11.262Z,79.2
2022-08-07T12:01:59.420Z,79.2
2022-08-07T12:03:55.164Z,79.1
2022-08-07T12:05:58.400Z,78.8
2022-08-07T12:08:03.560Z,78.9
2022-08-07T12:10:02.265Z,79.5
2022-08-07T12:12:09.414Z,79.6
2022-08-07T12:14:08.567Z,79.8
2022-08-07T12:16:10.618Z,79.7
2022-08-07T12:18:12.748Z,79.4
2022-08-07T12:20:20.054Z,78.8
2022-08-07T12:26:29.831Z,73.1
2022-08-07T12:28:30.851Z,72.9
2022-08-07T12:35:36.115Z,72.8
2022-08-07T12:38:10.169Z,73.1
2022-08-07T12:41:49.269Z,73
2022-08-07T12:44:02.540Z,73.4
2022-08-07T12:45:52.259Z,73.6
2022-08-07T12:47:50.308Z,73.6
2022-08-07T12:49:52.997Z,73.8
2022-08-07T12:52:14.202Z,73.9
2022-08-07T12:54:03.397Z,74.5
2022-08-07T12:56:03.289Z,76
2022-08-07T12:58:03.790Z,76.1
2022-08-07T13:00:05.744Z,76.6
2022-08-07T13:02:09.887Z,76.7
2022-08-07T13:04:13.563Z,76.7
2022-08-07T13:06:21.387Z,75.8
2022-08-07T13:08:18.741Z,74.4
2022-08-07T13:10:40.339Z,73.9
2022-08-07T13:12:21.169Z,73.6
2022-08-07T13:14:23.210Z,73.5
2022-08-07T13:16:25.262Z,72.6
2022-08-07T13:18:28.361Z,72.1
2022-08-07T13:20:29.368Z,71.4
2022-08-07T13:22:34.724Z,70.3
2022-08-07T13:24:36.599Z,70.1
2022-08-07T13:26:38.653Z,69.6
2022-08-07T13:28:13.701Z,69.4
2022-08-07T13:29:46.898Z,69.2
2022-08-07T13:31:55.183Z,68.9
2022-08-07T13:34:33.415Z,68.2
2022-08-07T13:36:01.009Z,67.6
2022-08-07T13:37:58.514Z,67.4
2022-08-07T13:40:35.839Z,67.3
2022-08-07T13:41:58.632Z,67.2
2022-08-07T13:44:00.645Z,67.3
2022-08-07T13:46:21.193Z,67.4
2022-08-07T13:48:08.385Z,67.2
2022-08-07T13:50:34.995Z,66.7
2022-08-07T13:52:32.532Z,66.6
2022-08-07T13:54:16.647Z,66.7
2022-08-07T13:56:15.934Z,66.6
2022-08-07T13:58:27.706Z,67
2022-08-07T14:00:26.989Z,67.6
2022-08-07T14:02:21.969Z,68.6
2022-08-07T14:04:29.690Z,68.4
2022-08-07T14:06:29.189Z,68.3
2022-08-07T14:08:31.255Z,67.7
2022-08-07T14:10:33.225Z,66.9
2022-08-07T14:12:36.049Z,66.9
2022-08-07T14:14:37.252Z,69.2
2022-08-07T14:16:39.269Z,71.2
2022-08-07T14:18:44.502Z,76.1
2022-08-07T14:20:49.111Z,76.1
2022-08-07T14:22:48.526Z,76.4
2022-08-07T14:25:17.025Z,76.5
2022-08-07T14:28:10.419Z,76.6
2022-08-07T14:30:05.195Z,76.5
2022-08-07T14:31:42.709Z,76.5
2022-08-07T14:33:28.321Z,76.2
2022-08-07T14:35:45.807Z,76.1
2022-08-07T14:37:36.278Z,75.8
2022-08-07T14:40:18.194Z,75.3
2022-08-07T14:42:19.942Z,74.7
2022-08-07T14:43:56.983Z,73.6
2022-08-07T14:45:46.617Z,72.9
2022-08-07T14:47:45.733Z,72.4
2022-08-07T14:52:04.441Z,71.6
2022-08-07T14:54:20.829Z,69.8
2022-08-07T14:55:56.493Z,68.8
2022-08-07T14:57:58.542Z,67.8
2022-08-07T15:00:05.540Z,67
2022-08-07T15:02:03.070Z,66.7
2022-08-07T15:04:05.907Z,66.7
2022-08-07T15:06:07.042Z,66.7
2022-08-07T15:08:12.572Z,66.8
2022-08-07T15:10:11.392Z,66.6
2022-08-07T15:13:05.931Z,65.3
2022-08-07T15:14:18.299Z,63.2
2022-08-07T15:16:20.234Z,62.1
2022-08-07T15:18:28.844Z,61.8
2022-08-07T15:20:31.444Z,62.2
2022-08-07T15:21:59.395Z,62.2
2022-08-07T15:25:15.254Z,62.3
2022-08-07T15:25:36.940Z,62.2
2022-08-07T15:27:36.737Z,61.6
2022-08-07T15:30:09.276Z,61.1
2022-08-07T15:32:01.579Z,60.9
2022-08-07T15:38:04.548Z,60.9
2022-08-07T15:39:56.828Z,61.2
2022-08-07T15:42:45.627Z,61.6
2022-08-07T15:43:56.904Z,61.6
2022-08-07T15:46:02.427Z,61.8
2022-08-07T15:48:00.665Z,61.7
2022-08-07T15:50:05.530Z,61.8
2022-08-07T15:52:03.149Z,61.8
2022-08-07T15:54:05.083Z,61.6
2022-08-07T15:56:10.234Z,61.3
2022-08-07T15:58:20.685Z,61.5
2022-08-07T16:00:31.804Z,61.5
2022-08-07T16:02:16.234Z,61.5
2022-08-07T16:04:18.188Z,61.7
2022-08-07T16:06:20.144Z,61.8
2022-08-07T16:08:32.055Z,62.6
2022-08-07T16:12:29.855Z,64.2
2022-08-07T16:14:31.263Z,64.5
2022-08-07T16:15:54.854Z,64.5
2022-08-07T16:18:01.816Z,64.6
2022-08-07T16:19:42.464Z,64.5
2022-08-07T16:22:01.709Z,64.5
2022-08-07T16:23:53.689Z,63.9
2022-08-07T16:25:55.035Z,63.6
2022-08-07T16:27:48.966Z,63.3
2022-08-07T16:30:10.314Z,63.1
2022-08-07T16:31:57.765Z,63
2022-08-07T16:34:03.183Z,64
2022-08-07T16:35:58.948Z,65.5
2022-08-07T16:40:04.236Z,66.9
2022-08-07T16:42:06.211Z,67.3
2022-08-07T16:47:03.008Z,68.4
2022-08-07T16:48:13.557Z,68.8
2022-08-07T16:50:35.740Z,69.7
2022-08-07T16:52:49.256Z,70.8
2022-08-07T16:54:22.053Z,71.2
2022-08-07T16:56:23.711Z,71.5
2022-08-07T16:58:33.722Z,72.1
2022-08-07T17:00:29.956Z,72.2
2022-08-07T17:02:51.330Z,72.3
2022-08-07T17:04:31.967Z,72.5
2022-08-07T17:06:44.287Z,72.4
2022-08-07T17:09:09.547Z,72.4
2022-08-07T17:10:41.363Z,72.3
2022-08-07T17:12:01.243Z,72.2
2022-08-07T17:14:19.091Z,72.1
2022-08-07T17:20:01.755Z,72.7
2022-08-07T17:21:57.558Z,72.8
2022-08-07T17:26:01.744Z,72.8
2022-08-07T17:34:35.012Z,73.5
2022-08-07T17:38:33.334Z,73.9
2022-08-07T17:42:23.187Z,74.2
2022-08-07T17:44:34.025Z,74.5
2022-08-07T17:50:34.763Z,77.6
2022-08-07T17:52:36.848Z,78.2
2022-08-07T17:54:53.081Z,78.7
2022-08-07T17:56:49.964Z,79.4
2022-08-07T17:58:46.471Z,79.8
2022-08-07T18:00:48.689Z,80.4
2022-08-07T18:02:56.631Z,81.4
2022-08-07T18:04:52.659Z,81.8
2022-08-07T18:07:19.342Z,82.3
2022-08-07T18:10:05.190Z,84.1
2022-08-07T18:12:07.563Z,84.4
2022-08-07T18:13:34.047Z,84.9
2022-08-07T18:15:33.513Z,86
2022-08-07T18:18:39.896Z,86.6
2022-08-07T18:21:08.287Z,87.3
2022-08-07T18:22:02.311Z,87.8
2022-08-07T18:23:43.481Z,88.6
2022-08-07T18:25:43.408Z,89
2022-08-07T18:27:45.525Z,89.5
2022-08-07T18:30:05.928Z,90
2022-08-07T18:31:52.919Z,90.4
2022-08-07T18:33:55.966Z,90.5
2022-08-07T18:35:57.255Z,90.7
2022-08-07T18:38:55.407Z,90.8
2022-08-07T18:40:07.165Z,90.9
2022-08-07T18:42:04.036Z,91.1
2022-08-07T18:44:08.782Z,91.3
2022-08-07T18:46:25.049Z,91.4
2022-08-07T18:50:31.133Z,91.5
2022-08-07T18:50:39.165Z,91.7
2022-08-07T18:52:38.134Z,91.8
2022-08-07T18:54:27.873Z,91.9
2022-08-07T18:56:21.527Z,92.1
2022-08-07T18:58:26.782Z,92.6
2022-08-07T19:00:33.289Z,92.8
2022-08-07T19:02:36.467Z,93
2022-08-07T19:03:38.183Z,93.2
2022-08-07T19:06:02.226Z,93.4
2022-08-07T19:07:38.104Z,93.6
2022-08-07T19:09:55.933Z,93.8
2022-08-07T19:12:03.821Z,94.3
2022-08-07T19:18:01.034Z,94.9
2022-08-07T19:19:53.755Z,95.1
2022-08-07T19:22:04.771Z,95.4
2022-08-07T19:24:00.164Z,95.7
2022-08-07T19:26:23.395Z,96.2
2022-08-07T19:28:57.686Z,96.4
2022-08-07T19:30:56.747Z,96.6
2022-08-07T19:32:18.616Z,96.9
2022-08-07T19:34:11.786Z,97.1
2022-08-07T19:36:13.867Z,97.3
2022-08-07T19:38:17.434Z,97.6
2022-08-07T19:40:31.237Z,98.2
2022-08-07T19:42:24.873Z,98.5
2022-08-07T19:44:25.517Z,98.9
2022-08-07T19:50:41.427Z,99.6
2022-08-07T19:52:34.338Z,99.7
2022-08-07T19:54:55.902Z,99.9
2022-08-07T19:57:52.107Z,99.9
2022-08-07T19:58:50.394Z,99.9
2022-08-07T20:07:58.359Z,99.9
2022-08-07T20:12:31.326Z,99.9
2022-08-07T20:14:04.287Z,99.9
2022-08-07T20:18:17.986Z,99.9
2022-08-07T20:20:10.633Z,99.9
2022-08-07T20:34:49.617Z,99.9
2022-08-07T20:36:33.976Z,99.9
2022-08-07T20:44:42.512Z,99.9
2022-08-07T20:50:52.037Z,99.9
2022-08-07T20:52:54.166Z,99.9
2022-08-07T20:58:03.879Z,99.9
2022-08-07T21:00:08.102Z,99.9
2022-08-07T21:06:25.932Z,99.9
2022-08-07T21:08:14.882Z,99.9
2022-08-07T21:10:17.017Z,99.9
2022-08-07T21:16:23.404Z,99.9
2022-08-07T21:18:31.990Z,99.9
2022-08-07T21:22:33.307Z,99.9
2022-08-07T21:24:35.067Z,99.9
2022-08-07T21:30:41.926Z,99.9
2022-08-07T21:32:50.125Z,99.9
2022-08-07T21:34:49.020Z,99.9
2022-08-07T21:36:51.189Z,99.9
2022-08-07T21:38:53.129Z,99.9
2022-08-07T21:40:55.387Z,99.9
2022-08-07T21:42:57.372Z,99.9
2022-08-07T21:44:59.523Z,99.9
2022-08-07T21:47:04.767Z,99.9
2022-08-07T21:49:14.829Z,99.9
2022-08-07T21:51:19.993Z,99.9
2022-08-07T21:55:39.875Z,99.9
2022-08-07T21:57:44.944Z,99.9
2022-08-07T22:00:04.313Z,99.9
2022-08-07T22:03:51.518Z,99.9
2022-08-07T22:05:53.633Z,99.9
2022-08-07T22:07:58.781Z,99.9
2022-08-07T22:20:23.505Z,99.9
2022-08-07T22:22:21.140Z,99.9
2022-08-07T22:24:15.941Z,99.9
2022-08-07T22:26:18.097Z,99.9
2022-08-07T22:30:26.595Z,99.9
2022-08-07T22:32:27.584Z,99.9
2022-08-07T22:36:31.842Z,99.9
2022-08-07T22:38:33.981Z,99.9
2022-08-07T22:40:36.090Z,99.9
2022-08-07T22:42:41.365Z,99.9
2022-08-07T22:44:58.072Z,99.9
2022-08-07T22:47:04.401Z,99.9
2022-08-07T22:47:49.308Z,99.9
2022-08-07T22:49:54.604Z,99.9
2022-08-07T22:51:52.514Z,99.9
2022-08-07T22:54:07.582Z,99.9
2022-08-07T22:55:59.923Z,99.9
2022-08-07T22:58:02.055Z,99.9
2022-08-07T23:00:04.174Z,99.9
2022-08-07T23:02:06.285Z,99.9
2022-08-07T23:04:08.402Z,99.9
2022-08-07T23:06:16.535Z,99.9
2022-08-07T23:08:22.392Z,99.9
2022-08-07T23:10:37.261Z,99.9
2022-08-07T23:12:32.759Z,99.9
2022-08-07T23:14:22.779Z,99.9
2022-08-07T23:16:44.601Z,99.9
2022-08-07T23:18:26.454Z,99.9
2022-08-07T23:20:40.794Z,99.9
2022-08-07T23:22:31.231Z,99.9
2022-08-07T23:24:38.538Z,99.9
2022-08-07T23:26:38.137Z,99.9
2022-08-07T23:28:48.758Z,99.9
2022-08-07T23:31:05.652Z,99.9
2022-08-07T23:34:19.367Z,99.9
2022-08-07T23:34:48.263Z,99.9
2022-08-07T23:37:17.858Z,99.9
2022-08-07T23:38:55.568Z,99.9
2022-08-07T23:44:02.453Z,99.9
2022-08-07T23:46:10.880Z,99.9
2022-08-07T23:48:06.707Z,99.9
2022-08-07T23:50:11.879Z,99.9
2022-08-07T23:52:58.137Z,99.9
2022-08-07T23:54:19.515Z,99.9
2022-08-07T23:56:20.743Z,99.9
2022-08-07T23:58:24.073Z,99.9
